Rosice, Czech Republic
Current Conditions -  °F | °C
As of 9:00 PM on Friday 24 Oct 2014 (Local Time) from LKNA Reporting Station
Broken Clouds Broken Clouds  
Wind Chill: 32°   Ceiling: 1400
Heat Index: 39°   Visibility: 6mi
Dew Point: 36°   Wind: 12mph
Humidity: 87%   Direction: 40°NE
Pressure: 30.15"   Gusts: NA
Location:  49.18°N, 16.38°E
Report Text: LKNA 241900Z 04010KT 9999 BKN014 04/02 Q1021 NOSIG
Loading
Personal Weather Stations






























Interactive Weather Map
Tropical Storm Tracking
New forecast layout! Learn more

10-Day Weather Forecast

Advertisements
Track Severe Weather on mobile